• Join FlightAware (Why Join?)
  • Login
  • US Flag 
02:40AM EDT


 

Airport Tracker/Info


-or-


 

Live Flight TrackerFlight Track Log ✈ ABX921 ✈ 24-Apr-2013 ✈ KHRL - KCVG

Flight Track Log - Related Links

Times and Time Zones

All times are in EDT time to prevent confusion due to time zone crossing. See the ABX921 flight status page for this flight to view local times or setup timezone preferences in your user account.

Time Position Orientation Groundspeed Altitude Reporting Facility
EDT Latitude Longitude Course Direction KTS MPH feet Rate Location/Type
10:54PM 26.2842 -97.6433 19° North 171 197 2,500  Level Houston Center
10:55PM 26.3189 -97.6328 15° North 196 226 3,500 1,620 Climbing Houston Center
10:55PM 26.3394 -97.6289 10° North 237 273 4,000 2,160 Climbing Houston Center
10:56PM 26.3903 -97.6128 16° North 260 299 5,700 2,640 Climbing Houston Center
10:57PM 26.4708 -97.5847 17° North 280 322 8,600 2,400 Climbing Houston Center
10:58PM 26.5500 -97.5578 17° North 294 338 10,600 1,740 Climbing Houston Center
10:59PM 26.6458 -97.5417 North 349 402 12,200 2,160 Climbing Houston Center
11:00PM 26.7506 -97.5308 North 373 429 15,100 2,700 Climbing Houston Center
11:01PM 26.8506 -97.4733 27° Northeast 401 461 17,700 2,520 Climbing Houston Center
11:02PM 26.9611 -97.4064 28° Northeast 419 482 20,300 2,100 Climbing Houston Center
11:03PM 27.0453 -97.3569 28° Northeast 424 488 22,000 2,160 Climbing Houston Center
11:04PM 27.1756 -97.2775 28° Northeast 439 505 24,700 2,280 Climbing Houston Center
11:05PM 27.2892 -97.2089 28° Northeast 456 525 26,700 1,080 Climbing Houston Center
11:06PM 27.4061 -97.1392 28° Northeast 471 542 26,900 120 Climbing Houston Center
11:07PM 27.5150 -97.0742 28° Northeast 476 548 27,000 120 Climbing Houston Center
11:08PM 27.6306 -97.0036 28° Northeast 474 545 27,200 900 Climbing Houston Center
11:09PM 27.7469 -96.9328 28° Northeast 476 548 28,900 1,560 Climbing Houston Center
11:10PM 27.8678 -96.8606 28° Northeast 485 558 30,400 1,560 Climbing Houston Center
11:11PM 27.9908 -96.7836 29° Northeast 499 574 32,100 1,200 Climbing Houston Center
11:12PM 28.1386 -96.6953 28° Northeast 502 578 32,900 1,140 Climbing Houston Center
11:13PM 28.2614 -96.6192 29° Northeast 504 580 34,500 1,380 Climbing Houston Center
11:14PM 28.3844 -96.5450 28° Northeast 503 579 35,800 1,260 Climbing Houston Center
11:15PM 28.5078 -96.4683 29° Northeast 506 582 37,100 1,080 Climbing Houston Center
11:16PM 28.6322 -96.3892 29° Northeast 512 589 38,000 900 Climbing Houston Center
11:17PM 28.7578 -96.3106 29° Northeast 517 595 39,000 420 Climbing Houston Center
11:18PM 28.8794 -96.2189 33° Northeast 525 604 38,900 -60 Descending Houston Center
11:19PM 28.9972 -96.1214 36° Northeast 525 604 38,900  Level Houston Center
11:20PM 29.1164 -96.0275 35° Northeast 523 602 38,900  Level Houston Center
11:21PM 29.2417 -95.9264 35° Northeast 522 601 39,000  Climbing Houston Center
11:22PM 29.3603 -95.8306 35° Northeast 521 600 39,000  Level Houston Center
11:23PM 29.4792 -95.7356 35° Northeast 520 598 39,000  Level Houston Center
11:24PM 29.5981 -95.6394 35° Northeast 519 597 39,000  Level Houston Center
11:25PM 29.7189 -95.5439 34° Northeast 522 601 39,000  Level Houston Center
11:26PM 29.8400 -95.4450 35° Northeast 525 604 39,000  Level Houston Center
11:27PM 29.9600 -95.3472 35° Northeast 522 601 39,000  Level Houston Center
11:28PM 30.0792 -95.2536 34° Northeast 516 594 39,000  Level Houston Center
11:29PM 30.2000 -95.1644 33° Northeast 515 593 39,000  Level Houston Center
11:30PM 30.3186 -95.0747 33° Northeast 503 579 39,000  Level Houston Center
11:31PM 30.4478 -94.9733 34° Northeast 506 582 39,000  Level Houston Center
11:32PM 30.5644 -94.8825 34° Northeast 507 583 39,000  Level Houston Center
11:33PM 30.6808 -94.7908 34° Northeast 506 582 39,000  Level Houston Center
11:34PM 30.7989 -94.7000 33° Northeast 508 585 39,000  Level Houston Center
11:35PM 30.9142 -94.6100 34° Northeast 503 579 39,000  Level Houston Center
11:36PM 31.0317 -94.5186 34° Northeast 513 590 39,000  Level Houston Center
11:37PM 31.1700 -94.4108 34° Northeast 508 585 39,000  Level Houston Center
11:38PM 31.2636 -94.3392 33° Northeast 510 587 39,000  Level Fort Worth Center
11:39PM 31.3803 -94.2478 34° Northeast 515 593 39,000  Level Fort Worth Center
11:40PM 31.4969 -94.1561 34° Northeast 515 593 39,000  Level Fort Worth Center
11:41PM 31.6158 -94.0664 33° Northeast 510 587 39,000  Level Fort Worth Center
11:42PM 31.7303 -93.9769 34° Northeast 502 578 39,000  Level Fort Worth Center
11:43PM 31.8467 -93.8844 34° Northeast 502 578 39,000  Level Fort Worth Center
11:44PM 31.9650 -93.7869 35° Northeast 508 585 39,000  Level Fort Worth Center
11:45PM 32.0833 -93.6964 33° Northeast 502 578 39,000  Level Fort Worth Center
11:46PM 32.1872 -93.6039 37° Northeast 502 578 39,000  Level Fort Worth Center
11:47PM 32.3033 -93.5128 34° Northeast 507 583 39,000  Level Fort Worth Center
11:48PM 32.4214 -93.4192 34° Northeast 507 583 39,000  Level Fort Worth Center
11:49PM 32.5394 -93.3253 34° Northeast 507 583 39,000  Level Fort Worth Center
11:50PM 32.6572 -93.2286 35° Northeast 507 583 39,000  Level Fort Worth Center
11:51PM 32.7711 -93.1369 34° Northeast 499 574 39,000  Level Fort Worth Center
11:52PM 32.8850 -93.0472 33° Northeast 499 574 39,000  Level Fort Worth Center
11:53PM 32.9967 -92.9578 34° Northeast 493 567 39,000  Level Fort Worth Center
11:55PM 33.1781 -92.8119 34° Northeast 491 565 39,000  Level Memphis Center
11:56PM 33.2975 -92.6886 41° Northeast 499 574 39,000  Level Memphis Center
11:57PM 33.3875 -92.5517 52° Northeast 505 581 39,000  Level Memphis Center
11:58PM 33.4753 -92.4192 52° Northeast 512 589 39,000  Level Memphis Center
11:59PM 33.5692 -92.2919 48° Northeast 512 589 39,000  Level Memphis Center
12:00AM 33.6672 -92.1667 47° Northeast 512 589 39,000  Level Memphis Center
12:01AM 33.7525 -92.0311 53° Northeast 506 582 39,000  Level Memphis Center
12:02AM 33.8378 -91.8903 54° Northeast 511 588 39,000  Level Memphis Center
12:03AM 33.9228 -91.7542 53° Northeast 511 588 39,000  Level Memphis Center
12:04AM 33.9950 -91.6325 54° Northeast 504 580 39,000  Level Memphis Center
12:05AM 34.0800 -91.4933 54° Northeast 509 586 39,000  Level Memphis Center
12:06AM 34.1667 -91.3489 54° Northeast 520 598 39,000  Level Memphis Center
12:07AM 34.2511 -91.2089 54° Northeast 515 593 39,000  Level Memphis Center
12:08AM 34.3461 -91.0539 53° Northeast 521 600 39,000  Level Memphis Center
12:09AM 34.4344 -90.9111 53° Northeast 522 601 39,000  Level Memphis Center
12:10AM 34.5183 -90.7681 55° Northeast 522 601 39,000  Level Memphis Center
12:11AM 34.6147 -90.6397 48° Northeast 514 592 39,000  Level Memphis Center
12:12AM 34.7256 -90.5417 36° Northeast 499 574 39,000  Level Memphis Center
12:13AM 34.8383 -90.4431 36° Northeast 499 574 39,000  Level Memphis Center
12:14AM 34.9447 -90.3292 41° Northeast 499 574 39,000  Level Memphis Center
12:15AM 35.0386 -90.2175 44° Northeast 506 582 39,000  Level Memphis Center
12:16AM 35.1386 -90.0956 45° Northeast 506 582 39,000  Level Memphis Center
12:17AM 35.2403 -89.9731 45° Northeast 506 582 39,000  Level Memphis Center
12:18AM 35.3422 -89.8481 45° Northeast 515 593 39,000  Level Memphis Center
12:19AM 35.4519 -89.7122 45° Northeast 510 587 39,000  Level Memphis Center
12:20AM 35.5536 -89.5889 45° Northeast 510 587 39,000  Level Memphis Center
12:21AM 35.6528 -89.4653 45° Northeast 510 587 39,000  Level Memphis Center
12:22AM 35.7497 -89.3389 47° Northeast 504 580 39,000  Level Memphis Center
12:23AM 35.8511 -89.2172 44° Northeast 504 580 39,000  Level Memphis Center
12:24AM 35.9519 -89.0928 45° Northeast 504 580 39,000  Level Memphis Center
12:25AM 36.0547 -88.9656 45° Northeast 510 587 39,000  Level Memphis Center
12:26AM 36.1556 -88.8378 46° Northeast 510 587 39,000  Level Memphis Center
12:27AM 36.2581 -88.7097 45° Northeast 510 587 39,000  Level Memphis Center
12:28AM 36.3628 -88.5839 44° Northeast 510 587 39,000  Level Memphis Center
12:29AM 36.4631 -88.4578 45° Northeast 510 587 39,000  Level Memphis Center
12:30AM 36.5672 -88.3261 45° Northeast 510 587 39,000  Level Memphis Center
12:31AM 36.6692 -88.1969 45° Northeast 510 587 39,000  Level Memphis Center
12:32AM 36.7711 -88.0672 46° Northeast 510 587 39,000  Level Memphis Center
12:33AM 36.8708 -87.9400 46° Northeast 515 593 39,000  Level Memphis Center
12:34AM 36.9722 -87.8094 46° Northeast 515 593 39,000  Level Memphis Center
12:35AM 37.1286 -87.6064 46° Northeast 525 604 39,000  Level Indianapolis Center
12:36AM 37.2306 -87.4736 46° Northeast 524 603 39,000  Level Indianapolis Center
12:37AM 37.3325 -87.3392 46° Northeast 525 604 39,000  Level Indianapolis Center
12:38AM 37.4344 -87.2044 46° Northeast 525 604 39,000  Level Indianapolis Center
12:39AM 37.5389 -87.0642 47° Northeast 531 611 39,000  Level Indianapolis Center
12:40AM 37.6403 -86.9289 47° Northeast 531 611 39,000 -180 Level Indianapolis Center
12:41AM 37.7419 -86.7950 46° Northeast 530 610 38,700 -1,560 Descending Indianapolis Center
12:42AM 37.8464 -86.6556 46° Northeast 543 625 35,900 -3,060 Descending Indianapolis Center
12:43AM 37.9522 -86.5119 47° Northeast 559 643 32,600 -3,180 Descending Indianapolis Center
12:44AM 38.0586 -86.3689 47° Northeast 560 644 29,500 -2,940 Descending Indianapolis Center
12:45AM 38.1628 -86.2267 47° Northeast 555 639 26,700 -2,880 Descending Indianapolis Center
12:46AM 38.2639 -86.0867 47° Northeast 541 623 23,800 -2,880 Descending Indianapolis Center
12:47AM 38.3606 -85.9553 47° Northeast 510 587 21,000 -2,640 Descending Indianapolis Center
12:48AM 38.4500 -85.8311 47° Northeast 471 542 18,500 -2,580 Descending Indianapolis Center
12:49AM 38.5278 -85.7228 47° Northeast 419 482 15,800 -2,340 Descending Indianapolis Center
12:50AM 38.5972 -85.6236 48° Northeast 378 435 13,900 -1,980 Descending Indianapolis Center
12:51AM 38.6464 -85.5156 60° Northeast 362 417 11,900 -1,440 Descending Indianapolis Center
12:52AM 38.6944 -85.4075 60° Northeast 350 403 11,000 -600 Descending Indianapolis Center
12:53AM 38.7172 -85.2811 77° East 312 359 10,700 -840 Descending Indianapolis Center
12:54AM 38.7369 -85.1764 76° East 304 350 9,400 -900 Descending Indianapolis Center
12:55AM 38.7556 -85.0764 77° East 289 333 9,000 -300 Descending Indianapolis Center
12:56AM 38.7725 -84.9994 74° East 229 264 8,900 -600 Descending Indianapolis Center
12:57AM 38.8225 -85.0069 353° North 190 219 7,900 -960 Descending Indianapolis Center
12:58AM 38.8722 -85.0264 343° North 184 212 7,000 -480 Descending Indianapolis Center
12:59AM 38.9225 -85.0483 341° North 188 216 7,000 -300 Level Indianapolis Center
01:00AM 38.9719 -85.0689 342° North 187 215 6,500 -900 Descending Indianapolis Center
01:01AM 39.0186 -85.0614 North 180 207 5,300 -1,140 Descending Indianapolis Center
01:02AM 39.0322 -84.9978 75° East 186 214 4,300 -720 Descending Indianapolis Center
01:03AM 39.0450 -84.9344 75° East 185 213 3,900 -420 Descending Indianapolis Center
01:04AM 39.0472 -84.8789 87° East 185 213 3,500 -480 Descending Indianapolis Center
01:05AM 39.0500 -84.8333 85° East 182 209 3,300 -960 Descending Cincinnati TRACON
01:06AM 39.0500 -84.7833 90° East 192 221 2,400 -960 Descending Cincinnati TRACON
01:07AM 39.0500 -84.7333 90° East 139 160 1,600 -840 Descending Cincinnati TRACON
01:09AM 39.0333 -84.6667 38° Northeast  Level FlightAware Approximate
01:16AM 39.0488 -84.6678 38° Northeast  Level Estimated